createdAt,value
2018-05-16T09:03:12.705Z,26.6
2018-05-16T09:03:46.194Z,26.71
2018-05-16T09:04:18.304Z,26.72
2018-05-16T09:04:50.379Z,26.69
2018-05-16T09:05:22.487Z,26.71
2018-05-16T09:05:56.226Z,26.81
2018-05-16T09:06:28.366Z,26.79
2018-05-16T09:08:19.828Z,26.82
2018-05-16T09:08:51.930Z,26.86
2018-05-16T09:09:24.021Z,26.9
2018-05-16T09:09:56.239Z,26.87
2018-05-16T09:10:28.335Z,26.93
2018-05-16T09:11:00.550Z,26.96
2018-05-16T09:11:32.611Z,26.93
2018-05-16T09:12:04.753Z,27
2018-05-16T09:12:36.831Z,27
2018-05-16T09:13:08.891Z,26.96
2018-05-16T09:13:42.739Z,27
2018-05-16T09:14:14.830Z,26.97
2018-05-16T09:14:46.930Z,27.06
2018-05-16T09:15:19.092Z,27.08
2018-05-16T09:15:51.154Z,27.06
2018-05-16T09:16:23.160Z,27.09
2018-05-16T09:16:55.223Z,27.11
2018-05-16T09:17:27.323Z,27.06
2018-05-16T09:17:59.427Z,27.15
2018-05-16T09:18:31.525Z,27.12
2018-05-16T09:19:03.610Z,27.12
2018-05-16T09:19:35.684Z,27.21
2018-05-16T09:20:07.851Z,27.21
2018-05-16T09:20:39.891Z,27.24
2018-05-16T09:22:31.333Z,27.28
2018-05-16T09:23:03.445Z,27.36
2018-05-16T09:23:35.528Z,27.31
2018-05-16T09:24:07.615Z,27.34
2018-05-16T09:24:39.676Z,27.3
2018-05-16T09:25:11.816Z,27.31
2018-05-16T09:27:03.437Z,27.43
2018-05-16T09:27:35.520Z,27.42
2018-05-16T09:28:07.628Z,27.42
2018-05-16T09:28:39.716Z,27.45
2018-05-16T09:29:11.818Z,27.45
2018-05-16T09:29:43.901Z,27.43
2018-05-16T09:30:15.998Z,27.49
2018-05-16T09:30:48.083Z,27.38
2018-05-16T09:31:20.182Z,27.43
2018-05-16T09:31:52.274Z,27.46
2018-05-16T09:32:24.354Z,27.46
2018-05-16T09:32:56.454Z,27.49
2018-05-16T09:33:28.541Z,27.49
2018-05-16T09:34:00.635Z,27.59
2018-05-16T09:34:32.746Z,27.48
2018-05-16T09:35:04.817Z,27.53
2018-05-16T09:36:56.357Z,27.46
2018-05-16T09:37:28.432Z,27.61
2018-05-16T09:38:00.537Z,27.64
2018-05-16T09:38:32.604Z,27.59
2018-05-16T09:39:04.706Z,27.59
2018-05-16T09:40:56.354Z,27.52
2018-05-16T09:41:28.463Z,27.64
2018-05-16T09:42:00.569Z,27.68
2018-05-16T09:42:32.667Z,27.72
2018-05-16T09:43:04.759Z,27.66
2018-05-16T09:43:36.864Z,27.69
2018-05-16T09:44:08.989Z,27.71
2018-05-16T09:44:41.094Z,27.69
2018-05-16T09:45:13.152Z,27.68
2018-05-16T09:45:45.332Z,27.8
2018-05-16T09:46:17.359Z,27.8
2018-05-16T09:46:49.408Z,27.87
2018-05-16T09:47:21.499Z,27.81
2018-05-16T09:47:53.600Z,27.84
2018-05-16T09:48:25.688Z,27.9
2018-05-16T09:48:57.791Z,27.96
2018-05-16T09:50:49.208Z,28.02
2018-05-16T09:51:21.361Z,28.05
2018-05-16T09:51:53.364Z,28.05
2018-05-16T09:52:25.450Z,28.06
2018-05-16T09:52:57.535Z,28.01
2018-05-16T09:53:29.593Z,28.06
2018-05-16T09:54:01.676Z,28.18
2018-05-16T09:54:33.771Z,28.14
2018-05-16T09:55:05.865Z,28.17
2018-05-16T09:55:37.962Z,28.12
2018-05-16T09:56:10.083Z,28.24
2018-05-16T09:56:42.450Z,28.21
2018-05-16T09:57:14.869Z,28.16
2018-05-16T09:57:46.999Z,28.17
2018-05-16T09:58:19.155Z,28.27
2018-05-16T10:00:10.796Z,28.31
2018-05-16T10:02:02.539Z,28.39
2018-05-16T10:02:34.633Z,28.39
2018-05-16T10:03:06.731Z,28.33
2018-05-16T10:03:38.830Z,28.48
2018-05-16T10:04:10.904Z,28.46
2018-05-16T10:06:02.550Z,28.53
2018-05-16T10:06:34.626Z,28.46
2018-05-16T10:08:26.219Z,28.55
2018-05-16T10:08:58.360Z,28.57
2018-05-16T10:09:30.456Z,28.57
2018-05-16T10:10:02.534Z,28.6
2018-05-16T10:10:34.654Z,28.6
2018-05-16T10:11:06.698Z,28.72
2018-05-16T10:11:38.817Z,28.78
2018-05-16T10:12:10.912Z,28.7
2018-05-16T10:12:43.002Z,28.65
2018-05-16T10:13:15.113Z,28.67
2018-05-16T10:13:47.266Z,28.65
2018-05-16T10:15:39.059Z,28.75
2018-05-16T10:17:30.566Z,28.82
2018-05-16T10:18:02.651Z,28.88
2018-05-16T10:18:34.723Z,28.79
2018-05-16T10:20:26.246Z,28.91
2018-05-16T10:20:58.343Z,28.83
2018-05-16T10:21:30.444Z,28.9
2018-05-16T10:22:02.514Z,28.88
2018-05-16T10:22:34.617Z,28.91
2018-05-16T10:23:06.707Z,28.9
2018-05-16T10:23:38.908Z,28.97
2018-05-16T10:24:10.908Z,28.97
2018-05-16T10:24:43.009Z,28.85
2018-05-16T10:25:15.109Z,28.86
2018-05-16T10:25:47.221Z,29.01
2018-05-16T10:27:38.729Z,28.95
2018-05-16T10:28:10.841Z,29.01
2018-05-16T10:28:42.942Z,28.98
2018-05-16T10:29:15.052Z,28.95
2018-05-16T10:29:47.141Z,29.06
2018-05-16T10:30:19.294Z,29.01
2018-05-16T10:32:10.951Z,29.08
2018-05-16T10:32:43.031Z,29.11
2018-05-16T10:33:15.106Z,29.1
2018-05-16T10:33:47.208Z,29.18
2018-05-16T10:34:19.319Z,29.2
2018-05-16T10:34:51.431Z,29.26
2018-05-16T10:35:23.535Z,29.26
2018-05-16T10:35:55.638Z,29.28
2018-05-16T10:36:27.686Z,29.3
2018-05-16T10:36:59.781Z,29.39
2018-05-16T10:37:31.848Z,29.28
2018-05-16T10:38:03.964Z,29.38
2018-05-16T10:38:36.076Z,29.39
2018-05-16T10:39:08.153Z,29.39
2018-05-16T10:39:40.262Z,29.39
2018-05-16T10:40:12.349Z,29.42
2018-05-16T10:40:44.444Z,29.42
2018-05-16T10:41:16.534Z,29.39
2018-05-16T10:41:48.621Z,29.54
2018-05-16T10:42:20.729Z,29.51
2018-05-16T10:42:52.836Z,29.51
2018-05-16T10:44:44.579Z,29.55
2018-05-16T10:46:36.357Z,29.65
2018-05-16T10:47:08.453Z,29.63
2018-05-16T10:47:40.541Z,29.61
2018-05-16T10:48:12.661Z,29.73
2018-05-16T10:48:44.775Z,29.67
2018-05-16T10:50:36.493Z,29.85
2018-05-16T10:51:08.555Z,29.84
2018-05-16T10:52:59.943Z,29.82
2018-05-16T10:53:32.056Z,29.94
2018-05-16T10:54:04.148Z,29.81
2018-05-16T10:54:36.252Z,29.87
2018-05-16T10:55:08.350Z,29.94
2018-05-16T10:55:40.426Z,29.95
2018-05-16T10:56:12.516Z,29.92
2018-05-16T10:56:44.636Z,29.97
2018-05-16T10:57:16.751Z,30.04
2018-05-16T10:57:48.817Z,30.02
2018-05-16T10:58:20.877Z,29.97
2018-05-16T11:00:12.327Z,30.09
2018-05-16T11:00:44.433Z,30.11
2018-05-16T11:01:16.550Z,30.1
2018-05-16T11:01:48.655Z,30.06
2018-05-16T11:02:20.750Z,30.06
2018-05-16T11:02:52.842Z,30.11
2018-05-16T11:03:25.074Z,30.13
2018-05-16T11:03:57.185Z,30.11
2018-05-16T11:04:29.238Z,30.09
2018-05-16T11:05:01.319Z,30.19
2018-05-16T11:05:33.476Z,30.11
2018-05-16T11:06:05.577Z,30.22
2018-05-16T11:09:17.092Z,30.32
2018-05-16T11:09:49.216Z,30.31
2018-05-16T11:10:21.459Z,30.32
2018-05-16T11:10:53.590Z,30.29
2018-05-16T11:11:25.703Z,30.35
2018-05-16T11:11:57.807Z,30.34
2018-05-16T11:12:29.912Z,30.37
2018-05-16T11:13:02.022Z,30.37
2018-05-16T11:13:34.124Z,30.37
2018-05-16T11:15:25.761Z,30.35
2018-05-16T11:15:57.860Z,30.42
2018-05-16T11:16:29.921Z,30.4
2018-05-16T11:17:02.019Z,30.45
2018-05-16T11:17:34.097Z,30.47
2018-05-16T11:18:06.195Z,30.56
2018-05-16T11:18:38.301Z,30.54
2018-05-16T11:19:10.377Z,30.42
2018-05-16T11:19:42.477Z,30.57
2018-05-16T11:20:14.597Z,30.54
2018-05-16T11:20:46.725Z,30.54
2018-05-16T11:21:18.858Z,30.6
2018-05-16T11:21:50.970Z,30.52
2018-05-16T11:23:42.533Z,30.62
2018-05-16T11:24:14.610Z,30.57
2018-05-16T11:24:46.656Z,30.66
2018-05-16T11:25:18.760Z,30.64
2018-05-16T11:25:50.838Z,30.64
2018-05-16T11:26:22.931Z,30.62
2018-05-16T11:26:55.015Z,30.7
2018-05-16T11:27:27.104Z,30.64
2018-05-16T11:27:59.189Z,30.63
2018-05-16T11:28:31.258Z,30.67
2018-05-16T11:29:03.362Z,30.7
2018-05-16T11:29:35.458Z,30.69
2018-05-16T11:30:07.570Z,30.73
2018-05-16T11:30:39.669Z,30.81
2018-05-16T11:31:11.740Z,30.84
2018-05-16T11:31:43.865Z,30.79
2018-05-16T11:32:15.965Z,30.81
2018-05-16T11:32:48.067Z,30.79
2018-05-16T11:33:20.157Z,30.89
2018-05-16T11:33:52.250Z,30.82
2018-05-16T11:34:24.353Z,30.79
2018-05-16T11:36:15.789Z,30.86
2018-05-16T11:36:47.873Z,30.85
2018-05-16T11:37:19.945Z,30.77
2018-05-16T11:37:52.066Z,30.73
2018-05-16T11:41:03.032Z,30.81
2018-05-16T11:41:35.110Z,30.71
2018-05-16T11:42:07.211Z,30.81
2018-05-16T11:42:39.313Z,30.71
2018-05-16T11:43:11.395Z,30.78
2018-05-16T11:45:02.799Z,30.86
2018-05-16T11:45:34.891Z,30.78
2018-05-16T11:46:07.006Z,30.79
2018-05-16T11:46:39.107Z,30.81
2018-05-16T11:47:11.227Z,30.85
2018-05-16T11:47:43.320Z,30.79
2018-05-16T11:48:15.432Z,30.81
2018-05-16T11:48:47.797Z,30.85
2018-05-16T11:50:39.373Z,30.89
2018-05-16T11:51:11.486Z,30.85
2018-05-16T11:51:43.589Z,30.91
2018-05-16T11:52:15.690Z,30.86
2018-05-16T11:52:47.754Z,30.91
2018-05-16T11:53:19.860Z,30.93
2018-05-16T11:53:51.943Z,30.93
2018-05-16T11:54:24.034Z,30.86
2018-05-16T11:54:56.113Z,30.86
2018-05-16T11:55:28.184Z,30.89
2018-05-16T11:56:00.273Z,30.86
2018-05-16T11:56:32.386Z,30.96
2018-05-16T11:57:04.475Z,30.86
2018-05-16T11:57:36.582Z,30.88
2018-05-16T11:59:28.054Z,30.89
2018-05-16T12:00:00.165Z,30.89
2018-05-16T12:00:32.247Z,30.86
2018-05-16T12:01:04.340Z,30.86
2018-05-16T12:01:36.451Z,30.88
2018-05-16T12:02:08.578Z,30.85
2018-05-16T12:02:40.659Z,30.88
2018-05-16T12:04:32.319Z,30.86
2018-05-16T12:05:04.403Z,30.85
2018-05-16T12:05:36.508Z,30.84
2018-05-16T12:06:08.597Z,30.82
2018-05-16T12:06:40.707Z,30.85
2018-05-16T12:07:12.778Z,30.69
2018-05-16T12:07:44.884Z,30.71
2018-05-16T12:08:16.987Z,30.71
2018-05-16T12:08:49.077Z,30.71
2018-05-16T12:09:21.144Z,30.7
2018-05-16T12:09:53.222Z,30.64
2018-05-16T12:10:25.327Z,30.66
2018-05-16T12:12:16.645Z,30.6
2018-05-16T12:12:48.729Z,30.6
2018-05-16T12:13:20.845Z,30.62
2018-05-16T12:15:12.491Z,30.69
2018-05-16T12:15:44.583Z,30.64
2018-05-16T12:16:16.675Z,30.64
2018-05-16T12:16:48.768Z,30.66
2018-05-16T12:17:21.160Z,30.66
2018-05-16T12:19:12.659Z,30.62
2018-05-16T12:19:44.728Z,30.52
2018-05-16T12:20:16.836Z,30.57
2018-05-16T12:20:49.534Z,30.56
2018-05-16T12:21:22.952Z,30.59
2018-05-16T12:21:56.660Z,30.51
2018-05-16T12:22:28.764Z,30.59
2018-05-16T12:24:20.702Z,30.51
2018-05-16T12:24:53.301Z,30.52
2018-05-16T12:26:45.591Z,30.57
2018-05-16T12:27:18.272Z,30.64
2018-05-16T12:27:50.381Z,30.69
2018-05-16T12:28:22.488Z,30.75
2018-05-16T12:28:54.692Z,30.86
2018-05-16T12:29:26.686Z,30.86
2018-05-16T12:29:58.786Z,30.78
2018-05-16T12:30:30.916Z,30.89
2018-05-16T12:31:03.017Z,30.94
2018-05-16T12:31:35.103Z,30.93
2018-05-16T12:32:07.210Z,30.88
2018-05-16T12:32:39.299Z,30.88
2018-05-16T12:33:11.411Z,31
2018-05-16T12:33:43.634Z,31.13
2018-05-16T12:34:15.777Z,31.26
2018-05-16T12:34:47.860Z,31.34
2018-05-16T12:37:59.190Z,31.28
2018-05-16T12:39:50.610Z,31.28
2018-05-16T12:40:22.705Z,31.23
2018-05-16T12:40:54.801Z,31.12
2018-05-16T12:41:26.866Z,31.15
2018-05-16T12:43:18.330Z,31.19
2018-05-16T12:43:50.422Z,31.19
2018-05-16T12:45:42.095Z,31.49
2018-05-16T12:46:14.308Z,31.59
2018-05-16T12:46:46.405Z,31.71
2018-05-16T12:47:18.468Z,31.78
2018-05-16T12:47:50.730Z,31.72
2018-05-16T12:48:22.820Z,31.9
2018-05-16T12:50:14.599Z,32.1
2018-05-16T12:50:46.698Z,32.17
2018-05-16T12:51:18.800Z,32.19
2018-05-16T12:51:50.973Z,32.28
2018-05-16T12:53:42.684Z,32.65
2018-05-16T12:54:14.791Z,32.64
2018-05-16T12:56:06.351Z,32.74
2018-05-16T12:56:38.462Z,32.65
2018-05-16T12:57:10.518Z,32.62
2018-05-16T12:57:42.595Z,32.54
2018-05-16T12:58:14.694Z,32.45
2018-05-16T12:58:46.776Z,32.5
2018-05-16T12:59:18.878Z,32.45
2018-05-16T12:59:50.978Z,32.49
2018-05-16T13:00:23.068Z,32.68
2018-05-16T13:00:55.166Z,32.67
2018-05-16T13:02:46.941Z,33.08
2018-05-16T13:03:19.034Z,33.17
2018-05-16T13:03:51.145Z,33.31
2018-05-16T13:05:42.528Z,33.46
2018-05-16T13:07:34.196Z,33.56
2018-05-16T13:08:06.300Z,33.55
2018-05-16T13:08:38.395Z,33.74
2018-05-16T13:10:30.809Z,33.83
2018-05-16T13:11:02.893Z,33.81
2018-05-16T13:14:13.702Z,34.39
2018-05-16T13:14:45.795Z,34.46
2018-05-16T13:15:17.877Z,34.45
2018-05-16T13:15:50.002Z,34.39
2018-05-16T13:16:22.108Z,34.33
2018-05-16T13:18:13.442Z,34.34
2018-05-16T13:18:45.540Z,34.29
2018-05-16T13:19:17.655Z,34.33
2018-05-16T13:21:09.442Z,34.64
2018-05-16T13:21:41.642Z,34.69
2018-05-16T13:22:13.669Z,34.66
2018-05-16T13:22:45.744Z,34.66
2018-05-16T13:24:37.210Z,34.74
2018-05-16T13:25:09.301Z,34.79
2018-05-16T13:25:41.406Z,34.81
2018-05-16T13:26:13.482Z,34.91
2018-05-16T13:28:04.904Z,34.97
2018-05-16T13:29:56.455Z,34.63
2018-05-16T13:43:54.791Z,32.67
2018-05-16T13:44:26.885Z,32.59
2018-05-16T13:44:58.989Z,32.49
2018-05-16T13:45:31.097Z,32.43
2018-05-16T13:46:03.184Z,32.34
2018-05-16T13:46:35.284Z,32.35
2018-05-16T13:47:07.379Z,32.19
2018-05-16T13:47:39.473Z,32.13
2018-05-16T13:48:11.575Z,32.1
2018-05-16T13:48:43.683Z,32.15
2018-05-16T13:51:55.149Z,31.72
2018-05-16T13:52:27.233Z,31.68
2018-05-16T13:52:59.323Z,31.53
2018-05-16T13:53:31.514Z,31.53
2018-05-16T13:54:03.509Z,31.52
2018-05-16T13:54:35.601Z,31.43
2018-05-16T13:55:07.693Z,31.38
2018-05-16T13:55:39.778Z,31.36
2018-05-16T13:56:11.894Z,31.3
2018-05-16T13:56:43.991Z,31.33
2018-05-16T13:58:35.648Z,31.01
2018-05-16T13:59:07.736Z,31.06
2018-05-16T13:59:39.838Z,31
2018-05-16T14:00:12.019Z,30.88
2018-05-16T14:00:44.054Z,30.91
2018-05-16T14:01:16.151Z,31
2018-05-16T14:01:48.259Z,30.94
2018-05-16T14:02:20.361Z,30.93
2018-05-16T14:04:11.998Z,30.78
2018-05-16T14:04:44.009Z,30.69
2018-05-16T14:05:16.082Z,30.59
2018-05-16T14:07:07.745Z,30.56
2018-05-16T14:08:59.396Z,30.42
2018-05-16T14:09:31.497Z,30.42
2018-05-16T14:10:03.582Z,30.39
2018-05-16T14:10:35.681Z,30.34
2018-05-16T14:11:07.775Z,30.26
2018-05-16T14:12:59.584Z,30.25
2018-05-16T14:13:31.658Z,30.22
2018-05-16T14:14:03.713Z,30.1
2018-05-16T14:15:55.351Z,30.06
2018-05-16T14:16:27.435Z,30.02
2018-05-16T14:16:59.541Z,30.04
2018-05-16T14:17:31.620Z,29.89
2018-05-16T14:18:03.724Z,30.02
2018-05-16T14:18:35.820Z,29.91
2018-05-16T14:19:07.893Z,29.91
2018-05-16T14:20:59.249Z,29.82
2018-05-16T14:21:31.343Z,29.84
2018-05-16T14:22:03.453Z,29.94
2018-05-16T14:22:35.536Z,30.1
2018-05-16T14:23:07.646Z,30.16
2018-05-16T14:23:39.755Z,30.16
2018-05-16T14:24:11.834Z,30.21
2018-05-16T14:24:43.934Z,30.26
2018-05-16T14:25:16.012Z,30.13
2018-05-16T14:25:48.114Z,30.18
2018-05-16T14:26:20.194Z,30.19
2018-05-16T14:26:52.307Z,30.13
2018-05-16T14:27:24.395Z,30.13
2018-05-16T14:27:56.487Z,30.06
2018-05-16T14:29:47.921Z,29.97
2018-05-16T14:30:20.019Z,29.97
2018-05-16T14:30:52.135Z,29.98
2018-05-16T14:31:24.214Z,29.91
2018-05-16T14:31:56.299Z,29.88
2018-05-16T14:32:28.401Z,29.81
2018-05-16T14:33:00.484Z,29.82
2018-05-16T14:33:32.577Z,29.84
2018-05-16T14:34:04.670Z,29.77
2018-05-16T14:34:36.770Z,29.81
2018-05-16T14:35:08.855Z,29.77
2018-05-16T14:35:40.952Z,29.77
2018-05-16T14:36:13.065Z,29.73
2018-05-16T14:36:45.146Z,29.76
2018-05-16T14:37:17.225Z,29.75
2018-05-16T14:37:49.320Z,29.72
2018-05-16T14:38:21.424Z,29.7
2018-05-16T14:40:13.012Z,29.61
2018-05-16T14:40:45.126Z,29.65
2018-05-16T14:41:17.220Z,29.61
2018-05-16T14:41:49.323Z,29.67
2018-05-16T14:42:21.479Z,29.63
2018-05-16T14:44:13.177Z,29.69
2018-05-16T14:46:04.779Z,29.58
2018-05-16T14:46:36.863Z,29.55
2018-05-16T14:48:28.626Z,29.63
2018-05-16T14:49:00.709Z,29.77
2018-05-16T14:50:52.443Z,30.26
2018-05-16T14:51:24.549Z,30.42
2018-05-16T14:53:16.027Z,30.52
2018-05-16T14:53:48.118Z,30.49
2018-05-16T14:54:20.202Z,30.4
2018-05-16T14:54:52.283Z,30.4
2018-05-16T14:55:24.409Z,30.48
2018-05-16T14:55:56.525Z,30.37
2018-05-16T14:56:28.600Z,30.29
2018-05-16T14:57:00.690Z,30.39
2018-05-16T14:57:32.782Z,30.29
2018-05-16T14:58:04.881Z,30.32
2018-05-16T14:58:36.981Z,30.32
2018-05-16T15:00:28.530Z,30.37
2018-05-16T15:01:00.645Z,30.34
2018-05-16T15:01:32.746Z,30.32
2018-05-16T15:02:04.845Z,30.21
2018-05-16T15:02:36.951Z,30.19
2018-05-16T15:03:09.010Z,30.19
2018-05-16T15:03:41.101Z,30.29
2018-05-16T15:05:32.782Z,30.13
2018-05-16T15:06:04.864Z,30.09
2018-05-16T15:06:36.950Z,30.04
2018-05-16T15:08:28.291Z,30.04
2018-05-16T15:09:00.379Z,29.97
2018-05-16T15:09:32.473Z,30.03
2018-05-16T15:10:04.553Z,30.02
2018-05-16T15:10:36.649Z,30.09
2018-05-16T15:12:28.210Z,30.34
2018-05-16T15:13:00.290Z,30.34
2018-05-16T15:13:32.372Z,30.44
2018-05-16T15:14:04.455Z,30.48
2018-05-16T15:15:56.213Z,30.84
2018-05-16T15:16:28.301Z,30.94
2018-05-16T15:17:00.408Z,30.89
2018-05-16T15:17:32.490Z,30.97
2018-05-16T15:18:04.605Z,30.88
2018-05-16T15:19:56.043Z,31.03
2018-05-16T15:20:28.139Z,30.94
2018-05-16T15:21:00.236Z,30.97
2018-05-16T15:21:32.333Z,30.85
2018-05-16T15:22:04.427Z,30.89
2018-05-16T15:22:36.536Z,30.89
2018-05-16T15:23:08.644Z,30.73
2018-05-16T15:23:40.734Z,30.73
2018-05-16T15:24:12.858Z,30.67
2018-05-16T15:24:44.929Z,30.6
2018-05-16T15:25:17.000Z,30.64
2018-05-16T15:25:49.102Z,30.59
2018-05-16T15:26:21.189Z,30.47
2018-05-16T15:26:53.310Z,30.51
2018-05-16T15:27:25.516Z,30.45
2018-05-16T15:27:57.489Z,30.35
2018-05-16T15:28:29.583Z,30.4
2018-05-16T15:29:01.734Z,30.29
2018-05-16T15:29:33.760Z,30.19
2018-05-16T15:30:05.841Z,30.26
2018-05-16T15:30:37.929Z,30.16
2018-05-16T15:31:10.055Z,30.11
2018-05-16T15:31:42.160Z,30.09
2018-05-16T15:32:14.265Z,30.1
2018-05-16T15:32:46.387Z,30
2018-05-16T15:33:18.483Z,30.04
2018-05-16T15:33:50.577Z,30
2018-05-16T15:37:01.639Z,29.73
2018-05-16T15:37:33.705Z,29.67
2018-05-16T15:38:05.798Z,29.63
2018-05-16T15:39:57.234Z,29.45
2018-05-16T15:40:29.332Z,29.6
2018-05-16T15:41:01.414Z,29.48
2018-05-16T15:41:33.496Z,29.45
2018-05-16T15:42:05.609Z,29.4
2018-05-16T15:42:37.714Z,29.43
2018-05-16T15:44:29.319Z,29.38
2018-05-16T15:45:01.410Z,29.26
2018-05-16T15:45:33.488Z,29.26
2018-05-16T15:46:05.557Z,29.26
2018-05-16T15:46:37.715Z,29.18
2018-05-16T15:47:09.752Z,29.18
2018-05-16T15:47:41.854Z,29.13
2018-05-16T15:48:13.952Z,29.13
2018-05-16T15:50:05.491Z,29.06
2018-05-16T15:50:37.575Z,29.02
2018-05-16T15:51:09.673Z,28.95
2018-05-16T15:53:01.004Z,28.95
2018-05-16T15:53:33.097Z,28.94
2018-05-16T15:55:24.822Z,28.85
2018-05-16T15:55:56.919Z,28.79
2018-05-16T15:56:29.051Z,28.86
2018-05-16T15:57:01.141Z,28.85
2018-05-16T15:57:33.225Z,28.68
2018-05-16T15:58:05.335Z,28.76
2018-05-16T15:58:37.413Z,28.73
2018-05-16T15:59:09.508Z,28.73
2018-05-16T15:59:41.626Z,28.61
2018-05-16T16:00:13.721Z,28.55
2018-05-16T16:00:45.815Z,28.6
2018-05-16T16:01:17.897Z,28.54
2018-05-16T16:01:49.988Z,28.49
2018-05-16T16:02:22.100Z,28.51
2018-05-16T16:02:54.157Z,28.53
2018-05-16T16:06:04.834Z,28.27
2018-05-16T16:06:36.974Z,28.3
2018-05-16T16:07:09.079Z,28.23
2018-05-16T16:07:41.201Z,28.36
2018-05-16T16:08:13.399Z,28.17
2018-05-16T16:08:45.402Z,28.17
2018-05-16T16:09:17.505Z,28.18
2018-05-16T16:09:49.598Z,28.17
2018-05-16T16:10:21.699Z,28.16
2018-05-16T16:10:53.792Z,28.08
2018-05-16T16:11:25.896Z,28.03
2018-05-16T16:11:57.967Z,28.05
2018-05-16T16:12:30.047Z,28.06
2018-05-16T16:13:02.149Z,28.01
2018-05-16T16:13:34.243Z,28.06
2018-05-16T16:14:06.345Z,27.98
2018-05-16T16:14:38.437Z,28.02
2018-05-16T16:15:10.513Z,27.98
2018-05-16T16:18:21.843Z,27.87
2018-05-16T16:18:53.948Z,27.83
2018-05-16T16:19:26.057Z,27.75
2018-05-16T16:19:58.151Z,27.8
2018-05-16T16:20:30.229Z,27.81
2018-05-16T16:21:02.335Z,27.69
2018-05-16T16:21:34.431Z,27.75
2018-05-16T16:22:06.500Z,27.69
2018-05-16T16:22:38.618Z,27.66
2018-05-16T16:23:10.699Z,27.72
2018-05-16T16:23:42.796Z,27.74
2018-05-16T16:24:14.895Z,27.68
2018-05-16T16:26:06.350Z,27.61
2018-05-16T16:26:38.438Z,27.61
2018-05-16T16:27:10.513Z,27.64
2018-05-16T16:30:21.680Z,27.61
2018-05-16T16:30:53.751Z,27.49
2018-05-16T16:31:25.962Z,27.59
2018-05-16T16:31:57.936Z,27.49
2018-05-16T16:32:30.023Z,27.53
2018-05-16T16:33:02.113Z,27.48
2018-05-16T16:33:34.222Z,27.52
2018-05-16T16:34:06.274Z,27.48
2018-05-16T16:34:38.345Z,27.53
2018-05-16T16:36:29.763Z,27.49
2018-05-16T16:37:01.853Z,27.48
2018-05-16T16:37:33.956Z,27.48
2018-05-16T16:38:06.058Z,27.51
2018-05-16T16:38:38.157Z,27.48
2018-05-16T16:39:10.349Z,27.55
2018-05-16T16:39:42.348Z,27.55
2018-05-16T16:40:14.433Z,27.53
2018-05-16T16:40:46.530Z,27.52
2018-05-16T16:41:18.626Z,27.53
2018-05-16T16:41:50.728Z,27.51
2018-05-16T16:42:22.834Z,27.52
2018-05-16T16:42:54.924Z,27.49
2018-05-16T16:43:27.001Z,27.49
2018-05-16T16:43:59.085Z,27.52
2018-05-16T16:44:31.209Z,27.49
2018-05-16T16:45:03.294Z,27.48
2018-05-16T16:45:35.389Z,27.49
2018-05-16T16:46:07.479Z,27.51
2018-05-16T16:46:39.547Z,27.51
2018-05-16T16:48:31.273Z,27.52
2018-05-16T16:49:03.392Z,27.52
2018-05-16T16:49:35.491Z,27.53
2018-05-16T16:50:07.634Z,27.52
2018-05-16T16:50:39.688Z,27.49
2018-05-16T16:51:11.796Z,27.55
2018-05-16T16:51:43.901Z,27.51
2018-05-16T16:52:15.981Z,27.51
2018-05-16T16:54:07.368Z,27.52
2018-05-16T16:55:59.118Z,27.53
2018-05-16T16:56:31.204Z,27.48
2018-05-16T16:58:22.863Z,27.46
2018-05-16T16:58:54.954Z,27.49
2018-05-16T16:59:27.065Z,27.51
2018-05-16T16:59:59.221Z,27.51
2018-05-16T17:00:31.267Z,27.49
2018-05-16T17:01:03.361Z,27.55
2018-05-16T17:01:35.462Z,27.51
2018-05-16T17:02:07.568Z,27.46
2018-05-16T17:02:39.666Z,27.55
2018-05-16T17:04:31.198Z,27.49
2018-05-16T17:05:03.235Z,27.48
2018-05-16T17:05:35.332Z,27.55
2018-05-16T17:07:26.698Z,27.55
2018-05-16T17:07:58.813Z,27.51
2018-05-16T17:08:30.903Z,27.52
2018-05-16T17:09:03.004Z,27.45
2018-05-16T17:09:35.103Z,27.49
2018-05-16T17:10:07.185Z,27.48
2018-05-16T17:10:39.271Z,27.45
2018-05-16T17:11:11.360Z,27.51
2018-05-16T17:11:43.421Z,27.42
2018-05-16T17:13:35.101Z,27.45
2018-05-16T17:14:07.231Z,27.46
2018-05-16T17:15:58.882Z,27.49
2018-05-16T17:16:30.962Z,27.42
2018-05-16T17:17:03.067Z,27.51
2018-05-16T17:17:35.157Z,27.37
2018-05-16T17:18:07.247Z,27.41
2018-05-16T17:18:39.343Z,27.41
2018-05-16T17:19:11.425Z,27.46
2018-05-16T17:19:43.533Z,27.38
2018-05-16T17:20:15.659Z,27.33
2018-05-16T17:20:47.855Z,27.46
2018-05-16T17:22:39.636Z,27.3
2018-05-16T17:23:11.762Z,27.33
2018-05-16T17:23:43.845Z,27.28
2018-05-16T17:24:15.948Z,27.31
2018-05-16T17:24:48.045Z,27.34
2018-05-16T17:25:20.151Z,27.33
2018-05-16T17:25:52.243Z,27.33
2018-05-16T17:26:24.308Z,27.3
2018-05-16T17:26:56.452Z,27.34
2018-05-16T17:28:48.119Z,27.24
2018-05-16T17:29:20.213Z,27.31
2018-05-16T17:29:52.323Z,27.31
2018-05-16T17:30:24.493Z,27.3
2018-05-16T17:30:56.517Z,27.28
2018-05-16T17:32:47.893Z,27.31
2018-05-16T17:33:19.995Z,27.31
2018-05-16T17:33:52.083Z,27.26
2018-05-16T17:34:24.190Z,27.23
2018-05-16T17:34:56.299Z,27.3
2018-05-16T17:35:28.393Z,27.23
2018-05-16T17:36:00.507Z,27.3
2018-05-16T17:36:32.609Z,27.27
2018-05-16T17:38:24.129Z,27.26
2018-05-16T17:38:56.188Z,27.31
2018-05-16T17:40:47.814Z,27.31
2018-05-16T17:41:19.884Z,27.24
2018-05-16T17:41:51.985Z,27.27
2018-05-16T17:42:24.074Z,27.27
2018-05-16T17:42:56.180Z,27.28
2018-05-16T17:43:28.282Z,27.28
2018-05-16T17:44:00.369Z,27.28
2018-05-16T17:44:32.478Z,27.33
2018-05-16T17:46:24.229Z,27.26
2018-05-16T17:46:56.336Z,27.34
2018-05-16T17:47:28.426Z,27.27
2018-05-16T17:48:04.477Z,27.26
2018-05-16T17:48:36.552Z,27.3
2018-05-16T17:49:08.661Z,27.31
2018-05-16T17:49:40.764Z,27.26
2018-05-16T17:50:12.860Z,27.33
2018-05-16T17:50:44.955Z,27.28
2018-05-16T17:51:17.022Z,27.34
2018-05-16T17:51:49.131Z,27.3
2018-05-16T17:52:21.227Z,27.3
2018-05-16T17:52:53.298Z,27.26
2018-05-16T17:53:25.375Z,27.34
2018-05-16T17:53:57.462Z,27.28
2018-05-16T17:54:29.562Z,27.27
2018-05-16T17:55:01.695Z,27.31
2018-05-16T17:55:33.811Z,27.3
2018-05-16T17:56:05.898Z,27.28
2018-05-16T17:56:37.992Z,27.26
2018-05-16T17:57:10.076Z,27.27
2018-05-16T17:57:42.188Z,27.24
2018-05-16T17:58:14.293Z,27.34
2018-05-16T17:58:46.382Z,27.26
2018-05-16T17:59:18.443Z,27.27
2018-05-16T17:59:50.559Z,27.34
2018-05-16T18:00:22.651Z,27.31
2018-05-16T18:00:54.808Z,27.3
2018-05-16T18:02:46.154Z,27.31
2018-05-16T18:03:18.239Z,27.21
2018-05-16T18:03:50.339Z,27.15
2018-05-16T18:04:22.450Z,27.28
2018-05-16T18:04:54.545Z,27.26
2018-05-16T18:05:26.654Z,27.28
2018-05-16T18:05:58.760Z,27.21
2018-05-16T18:06:30.852Z,27.16
2018-05-16T18:08:22.550Z,27.12
2018-05-16T18:08:54.622Z,27.16
2018-05-16T18:09:26.697Z,27.12
2018-05-16T18:09:58.797Z,27.16
2018-05-16T18:10:30.897Z,27.19
2018-05-16T18:11:02.991Z,27.11
2018-05-16T18:11:35.089Z,27.06
2018-05-16T18:12:07.167Z,27.11
2018-05-16T18:12:39.268Z,27.06
2018-05-16T18:13:11.325Z,27.08
2018-05-16T18:13:43.425Z,27.01
2018-05-16T18:14:15.524Z,27.01
2018-05-16T18:14:47.616Z,27.08
2018-05-16T18:15:19.691Z,27.11
2018-05-16T18:15:51.797Z,27
2018-05-16T18:16:23.898Z,27.04
2018-05-16T18:16:56.085Z,26.99
2018-05-16T18:17:28.105Z,27.05
2018-05-16T18:19:19.766Z,27.04
2018-05-16T18:19:51.833Z,27
2018-05-16T18:20:23.879Z,26.99
2018-05-16T18:20:55.962Z,27.01
2018-05-16T18:22:47.657Z,26.99
2018-05-16T18:23:19.772Z,26.94
2018-05-16T18:23:51.876Z,26.9
2018-05-16T18:24:23.967Z,26.93
2018-05-16T18:24:56.067Z,26.89
2018-05-16T18:25:28.162Z,27
2018-05-16T18:27:19.939Z,26.86
2018-05-16T18:27:52.021Z,26.94
2018-05-16T18:28:24.108Z,26.82
2018-05-16T18:28:56.204Z,26.86
2018-05-16T18:29:28.418Z,26.84
2018-05-16T18:30:02.503Z,26.82
2018-05-16T18:30:34.579Z,26.79
2018-05-16T18:32:26.120Z,26.82
2018-05-16T18:32:58.212Z,26.76
2018-05-16T18:33:30.308Z,26.74
2018-05-16T18:34:02.404Z,26.72
2018-05-16T18:34:34.479Z,26.71
2018-05-16T18:35:06.570Z,26.63
2018-05-16T18:35:38.642Z,26.75
2018-05-16T18:36:10.693Z,26.63
2018-05-16T18:36:42.784Z,26.71
2018-05-16T18:37:14.894Z,26.6
2018-05-16T18:37:46.979Z,26.57
2018-05-16T18:38:19.085Z,26.67
2018-05-16T18:38:51.166Z,26.59
2018-05-16T18:40:42.674Z,26.63
2018-05-16T18:41:14.778Z,26.56